Time;durP1;ratioP1;P1;durP2;ratioP2;P2;SDS_P1;SDS_P2;PMS_P1;PMS_P2;Temp;Humidity;BMP_temperature;BMP_pressure;BME280_temperature;BME280_humidity;BME280_pressure;Samples;Min_cycle;Max_cycle;Signal;HPM_P1;HPM_P2
2024/02/24 00:00:23;;;;;;;17.70;11.43;;;;;;;4.48;100.00;99396.22;6099511;23;20197;-73
2024/02/24 00:02:50;;;;;;;17.53;11.40;;;;;;;4.48;100.00;99393.59;6065010;23;20182;-73
2024/02/24 00:05:16;;;;;;;19.37;10.57;;;;;;;4.48;100.00;99388.38;6100525;23;20185;-73
2024/02/24 00:07:43;;;;;;;16.77;9.80;;;;;;;4.49;100.00;99389.91;6100770;23;20173;-73
2024/02/24 00:10:12;;;;;;;18.90;10.83;;;;;;;4.50;100.00;99375.00;6064411;23;20194;-73
2024/02/24 00:12:38;;;;;;;18.07;11.13;;;;;;;4.51;100.00;99379.16;6100638;23;20516;-73
2024/02/24 00:15:05;;;;;;;18.03;11.20;;;;;;;4.52;100.00;99380.66;6100326;23;20646;-73
2024/02/24 00:17:32;;;;;;;19.00;10.83;;;;;;;4.52;100.00;99378.81;6100747;23;20164;-73
2024/02/24 00:19:58;;;;;;;23.37;11.43;;;;;;;4.53;100.00;99382.19;6064556;23;20193;-73
2024/02/24 00:22:24;;;;;;;18.27;10.67;;;;;;;4.54;100.00;99381.88;6099859;23;20512;-73
2024/02/24 00:24:51;;;;;;;21.70;11.07;;;;;;;4.54;100.00;99384.50;6100972;23;20181;-72
2024/02/24 00:27:18;;;;;;;20.27;11.30;;;;;;;4.55;100.00;99382.63;6102070;23;20626;-73
2024/02/24 00:29:45;;;;;;;18.00;9.90;;;;;;;4.57;100.00;99377.88;6101950;23;20200;-73
2024/02/24 00:32:11;;;;;;;20.53;11.03;;;;;;;4.57;100.00;99376.03;6101584;23;20188;-73
2024/02/24 00:34:37;;;;;;;15.67;11.40;;;;;;;4.58;100.00;99374.19;6066455;23;20173;-72
2024/02/24 00:37:04;;;;;;;22.50;11.83;;;;;;;4.58;100.00;99380.19;6100890;23;20308;-73
2024/02/24 00:39:31;;;;;;;17.97;10.67;;;;;;;4.60;100.00;99379.84;6101671;23;20200;-73
2024/02/24 00:41:57;;;;;;;21.23;11.30;;;;;;;4.60;100.00;99372.00;6067113;23;20180;-73
2024/02/24 00:44:25;;;;;;;21.03;11.03;;;;;;;4.59;100.00;99384.34;6066449;23;20176;-73
2024/02/24 00:46:51;;;;;;;19.90;11.33;;;;;;;4.60;100.00;99385.84;6102124;23;20168;-73
2024/02/24 00:49:17;;;;;;;16.33;11.03;;;;;;;4.60;100.00;99388.47;6096502;23;20200;-73
2024/02/24 00:51:44;;;;;;;15.77;10.00;;;;;;;4.61;100.00;99381.41;6101869;23;20186;-73
2024/02/24 00:54:11;;;;;;;16.73;10.07;;;;;;;4.61;100.00;99387.38;6092248;23;20178;-73
2024/02/24 00:56:38;;;;;;;17.70;9.97;;;;;;;4.61;100.00;99384.03;6101851;23;20170;-73
2024/02/24 00:59:05;;;;;;;15.83;10.53;;;;;;;4.62;100.00;99380.31;6101129;23;20677;-73
2024/02/24 01:01:33;;;;;;;17.87;10.10;;;;;;;4.61;100.00;99373.56;6101450;23;20170;-73
2024/02/24 01:04:00;;;;;;;14.53;9.70;;;;;;;4.62;100.00;99381.06;6101545;23;20198;-73
2024/02/24 01:06:27;;;;;;;19.83;10.10;;;;;;;4.63;100.00;99379.22;6101978;23;20162;-73
2024/02/24 01:08:53;;;;;;;14.97;8.90;;;;;;;4.63;100.00;99385.25;6101209;23;20532;-73
2024/02/24 01:11:19;;;;;;;16.13;9.50;;;;;;;4.63;100.00;99382.63;6101973;23;20520;-73
2024/02/24 01:13:46;;;;;;;13.40;8.23;;;;;;;4.63;100.00;99381.84;6101422;23;20166;-73
2024/02/24 01:16:12;;;;;;;13.37;7.23;;;;;;;4.63;100.00;99380.00;6101902;23;20563;-73
2024/02/24 01:18:40;;;;;;;11.10;6.60;;;;;;;4.65;100.00;99379.69;6101124;23;20166;-73
2024/02/24 01:21:06;;;;;;;10.43;6.30;;;;;;;4.64;100.00;99376.31;6066654;23;20631;-73
2024/02/24 01:23:33;;;;;;;8.43;5.60;;;;;;;4.64;100.00;99378.94;6101229;23;20561;-72
2024/02/24 01:25:59;;;;;;;9.60;5.57;;;;;;;4.65;100.00;99375.22;6101243;23;20196;-73
2024/02/24 01:28:26;;;;;;;8.33;4.87;;;;;;;4.66;100.00;99371.53;6101024;23;20162;-73
2024/02/24 01:30:52;;;;;;;10.73;5.60;;;;;;;4.67;100.00;99369.69;6101520;23;20169;-73
2024/02/24 01:33:19;;;;;;;7.57;4.80;;;;;;;4.69;100.00;99375.34;6101573;23;20166;-73
2024/02/24 01:35:46;;;;;;;9.07;4.60;;;;;;;4.69;100.00;99376.13;6089924;23;20265;-73
2024/02/24 01:38:13;;;;;;;8.40;4.63;;;;;;;4.70;100.00;99372.44;6101252;23;20163;-73
2024/02/24 01:40:39;;;;;;;9.33;5.13;;;;;;;4.71;100.00;99373.22;6101216;23;20182;-73
2024/02/24 01:43:24;;;;;;;7.13;4.37;;;;;;;4.71;100.00;99373.97;6065885;23;20170;-73
2024/02/24 01:45:51;;;;;;;9.83;4.70;;;;;;;4.72;100.00;99375.47;6101354;23;20170;-73
2024/02/24 01:48:18;;;;;;;6.33;4.30;;;;;;;4.74;100.00;99380.41;6065716;23;20175;-73
2024/02/24 01:50:47;;;;;;;12.47;5.00;;;;;;;4.74;100.00;99378.56;6065743;23;20559;-72
2024/02/24 01:53:15;;;;;;;10.00;4.87;;;;;;;4.76;100.00;99386.09;6065808;23;20172;-73
2024/02/24 01:55:42;;;;;;;7.40;4.43;;;;;;;4.76;100.00;99386.84;6100564;23;20721;-72
2024/02/24 01:58:10;;;;;;;9.40;4.77;;;;;;;4.78;100.00;99381.31;6101331;23;20162;-73
2024/02/24 02:00:37;;;;;;;8.77;4.90;;;;;;;4.78;100.00;99382.09;6101194;23;20582;-73
2024/02/24 02:03:03;;;;;;;8.97;5.13;;;;;;;4.80;100.00;99379.13;6101364;23;20704;-73
2024/02/24 02:05:30;;;;;;;10.53;5.30;;;;;;;4.79;100.00;99375.78;6100952;23;20174;-72
2024/02/24 02:07:58;;;;;;;11.70;5.10;;;;;;;4.80;100.00;99373.91;6101094;23;20172;-73
2024/02/24 02:10:24;;;;;;;11.13;6.57;;;;;;;4.80;100.00;99379.13;6100301;23;20906;-73
2024/02/24 02:12:50;;;;;;;10.03;5.87;;;;;;;4.79;100.00;99375.78;6101295;23;20640;-73
2024/02/24 02:15:17;;;;;;;8.30;5.47;;;;;;;4.79;100.00;99378.41;6099764;23;20634;-73
2024/02/24 02:17:43;;;;;;;7.53;5.50;;;;;;;4.79;100.00;99373.16;6100775;23;20515;-73
2024/02/24 02:20:10;;;;;;;7.23;4.57;;;;;;;4.79;100.00;99375.78;6100132;23;20185;-74
2024/02/24 02:22:37;;;;;;;8.13;5.40;;;;;;;4.79;100.00;99367.94;6101257;23;20184;-72
2024/02/24 02:25:04;;;;;;;8.17;5.43;;;;;;;4.79;100.00;99377.63;6100573;23;20170;-73
2024/02/24 02:27:31;;;;;;;9.20;6.20;;;;;;;4.78;100.00;99381.31;6063613;23;20184;-73
2024/02/24 02:29:59;;;;;;;8.77;5.40;;;;;;;4.79;100.00;99391.47;6099374;23;20251;-74
2024/02/24 02:32:26;;;;;;;6.43;4.63;;;;;;;4.79;100.00;99382.84;6100449;23;20237;-73
2024/02/24 02:34:52;;;;;;;9.87;4.93;;;;;;;4.78;100.00;99376.88;6100078;23;20172;-73
2024/02/24 02:37:18;;;;;;;6.90;4.90;;;;;;;4.79;100.00;99382.84;6100376;23;20166;-73
2024/02/24 02:39:46;;;;;;;7.97;5.23;;;;;;;4.77;100.00;99371.94;6100499;23;20203;-73
2024/02/24 02:42:12;;;;;;;8.10;5.30;;;;;;;4.78;100.00;99381.31;6100656;23;20190;-73
2024/02/24 02:44:39;;;;;;;8.93;5.30;;;;;;;4.78;100.00;99384.72;6100282;23;20168;-73
2024/02/24 02:47:05;;;;;;;9.03;5.27;;;;;;;4.76;100.00;99373.78;6099730;23;20952;-73
2024/02/24 02:49:31;;;;;;;8.63;5.33;;;;;;;4.76;100.00;99380.88;6100523;23;20204;-73
2024/02/24 02:51:58;;;;;;;11.50;6.03;;;;;;;4.75;100.00;99381.94;6065835;23;20193;-72
2024/02/24 02:54:24;;;;;;;11.60;5.37;;;;;;;4.72;100.00;99362.41;6100606;23;20166;-73
2024/02/24 02:56:52;;;;;;;9.00;5.40;;;;;;;4.71;100.00;99376.56;6100861;23;20162;-73
2024/02/24 02:59:18;;;;;;;11.60;5.77;;;;;;;4.70;100.00;99376.88;6100334;23;20186;-73
2024/02/24 03:01:47;;;;;;;9.87;5.97;;;;;;;4.66;100.00;99376.75;6065537;23;20176;-73
2024/02/24 03:04:14;;;;;;;8.70;5.30;;;;;;;4.63;100.00;99374.00;6065323;23;20193;-73
2024/02/24 03:06:40;;;;;;;9.83;5.97;;;;;;;4.58;100.00;99382.81;6065048;23;20263;-73
2024/02/24 03:09:06;;;;;;;10.57;6.30;;;;;;;4.53;100.00;99384.81;6100047;23;20182;-73
2024/02/24 03:11:33;;;;;;;8.20;5.60;;;;;;;4.51;100.00;99376.53;6100021;23;20178;-72
2024/02/24 03:14:01;;;;;;;7.53;5.33;;;;;;;4.45;100.00;99383.00;6100184;23;20190;-73
2024/02/24 03:16:27;;;;;;;10.27;5.53;;;;;;;4.41;100.00;99397.78;6099477;23;20168;-73
2024/02/24 03:18:53;;;;;;;8.10;4.80;;;;;;;4.36;100.00;99390.88;6100550;23;20192;-73
2024/02/24 03:21:26;;;;;;;9.73;5.37;;;;;;;4.29;100.00;99392.41;6100196;23;20162;-73
2024/02/24 03:23:52;;;;;;;8.27;5.13;;;;;;;4.21;100.00;99399.22;6101021;23;20724;-73
2024/02/24 03:26:18;;;;;;;7.07;4.67;;;;;;;4.17;100.00;99400.16;6100407;23;20162;-73
2024/02/24 03:28:44;;;;;;;9.43;4.27;;;;;;;4.10;100.00;99410.31;6100645;23;20299;-73
2024/02/24 03:31:12;;;;;;;5.67;4.10;;;;;;;4.03;100.00;99402.16;6065035;23;20240;-73
2024/02/24 03:33:38;;;;;;;7.70;4.43;;;;;;;3.97;100.00;99416.47;6101111;23;20194;-73
2024/02/24 03:36:05;;;;;;;8.10;4.40;;;;;;;3.91;100.00;99413.28;6099430;23;20175;-73
2024/02/24 03:38:31;;;;;;;6.70;4.33;;;;;;;3.85;100.00;99419.72;6101025;23;20162;-73
2024/02/24 03:40:58;;;;;;;8.40;4.37;;;;;;;3.77;100.00;99415.28;6100946;23;20169;-73
2024/02/24 03:43:25;;;;;;;6.93;4.17;;;;;;;3.70;100.00;99412.38;6101494;23;20538;-73
2024/02/24 03:45:51;;;;;;;6.63;4.50;;;;;;;3.64;100.00;99405.75;6101210;23;20229;-73
2024/02/24 03:48:19;;;;;;;7.97;4.57;;;;;;;3.58;100.00;99404.38;6101046;23;20232;-73
2024/02/24 03:50:45;;;;;;;7.47;4.20;;;;;;;3.52;100.00;99407.47;6100231;23;20209;-73
2024/02/24 03:53:12;;;;;;;6.77;4.00;;;;;;;3.45;100.00;99401.91;6101344;23;20261;-73
2024/02/24 03:55:38;;;;;;;5.97;4.27;;;;;;;3.39;100.00;99405.75;6100049;23;20170;-73
2024/02/24 03:58:04;;;;;;;6.57;4.20;;;;;;;3.32;100.00;99403.59;6100791;23;20383;-72
2024/02/24 04:00:34;;;;;;;5.33;4.40;;;;;;;3.26;100.00;99412.66;6102226;23;20341;-73
2024/02/24 04:03:02;;;;;;;6.33;4.03;;;;;;;3.22;100.00;99411.72;6102757;23;20279;-73
2024/02/24 04:05:30;;;;;;;7.23;4.67;;;;;;;3.15;100.00;99402.81;6101224;23;20162;-73
2024/02/24 04:07:56;;;;;;;6.43;4.37;;;;;;;3.10;100.00;99405.56;6102601;23;20828;-73
2024/02/24 04:10:23;;;;;;;9.50;4.17;;;;;;;3.02;100.00;99401.84;6066008;23;20198;-73
2024/02/24 04:12:49;;;;;;;10.40;4.73;;;;;;;2.98;100.00;99402.78;6102577;23;20516;-73
2024/02/24 04:15:19;;;;;;;5.73;4.07;;;;;;;2.92;100.00;99401.38;6102537;23;20177;-72
2024/02/24 04:17:45;;;;;;;7.93;4.60;;;;;;;2.86;100.00;99395.53;6103083;23;20170;-73
2024/02/24 04:20:12;;;;;;;10.37;4.77;;;;;;;2.83;100.00;99395.38;6102281;23;20196;-73
2024/02/24 04:22:40;;;;;;;7.57;4.60;;;;;;;2.77;100.00;99391.38;6102856;23;20162;-73
2024/02/24 04:25:07;;;;;;;6.70;4.40;;;;;;;2.73;100.00;99398.25;6102936;23;20178;-73
2024/02/24 04:27:34;;;;;;;6.73;4.30;;;;;;;2.67;100.00;99389.81;6102630;23;20158;-73
2024/02/24 04:30:00;;;;;;;7.90;4.30;;;;;;;2.63;100.00;99399.31;6102908;23;20200;-73
2024/02/24 04:32:27;;;;;;;11.17;4.93;;;;;;;2.57;100.00;99400.53;6067771;23;20201;-73
2024/02/24 04:34:57;;;;;;;4.97;3.97;;;;;;;2.52;100.00;99397.25;6101606;23;20192;-73
2024/02/24 04:37:23;;;;;;;7.40;4.63;;;;;;;2.47;100.00;99405.22;6066997;23;20170;-73
2024/02/24 04:39:52;;;;;;;5.97;4.00;;;;;;;2.41;100.00;99409.03;6102104;23;20182;-72
2024/02/24 04:42:18;;;;;;;7.57;4.20;;;;;;;2.35;100.00;99410.22;6102393;23;20189;-73
2024/02/24 04:44:47;;;;;;;5.40;3.93;;;;;;;2.29;100.00;99419.25;6102865;23;20170;-73
2024/02/24 04:47:13;;;;;;;6.77;4.23;;;;;;;2.23;100.00;99415.97;6102606;23;20165;-73
2024/02/24 04:49:40;;;;;;;7.77;4.40;;;;;;;2.19;100.00;99428.06;6102114;23;20232;-73
2024/02/24 04:52:06;;;;;;;7.87;4.50;;;;;;;2.14;100.00;99435.22;6102868;23;20197;-72
2024/02/24 04:54:33;;;;;;;8.57;4.37;;;;;;;2.06;100.00;99436.72;6066772;23;20174;-73
2024/02/24 04:57:00;;;;;;;6.07;3.90;;;;;;;2.02;100.00;99445.44;6102245;23;20173;-72
2024/02/24 04:59:27;;;;;;;8.00;4.37;;;;;;;1.98;100.00;99440.03;6102320;23;20188;-73
2024/02/24 05:01:53;;;;;;;8.13;4.07;;;;;;;1.93;100.00;99442.00;6067819;23;20237;-73
2024/02/24 05:04:19;;;;;;;5.43;4.20;;;;;;;1.90;100.00;99448.56;6102739;23;20505;-73
2024/02/24 05:06:46;;;;;;;7.37;4.23;;;;;;;1.86;100.00;99450.19;6067108;23;20520;-73
2024/02/24 05:09:12;;;;;;;7.33;4.23;;;;;;;1.82;100.00;99445.91;6102641;23;20190;-73
2024/02/24 05:11:39;;;;;;;5.23;4.10;;;;;;;1.78;100.00;99456.13;6102370;23;20232;-73
2024/02/24 05:14:07;;;;;;;6.80;4.47;;;;;;;1.73;100.00;99464.03;6065075;23;20193;-72
2024/02/24 05:16:35;;;;;;;7.80;5.03;;;;;;;1.71;100.00;99463.56;6102187;23;20167;-73
2024/02/24 05:19:01;;;;;;;7.90;4.83;;;;;;;1.68;100.00;99458.94;6103027;23;20186;-73
2024/02/24 05:21:28;;;;;;;7.10;4.13;;;;;;;1.64;100.00;99465.78;6067568;23;20176;-73
2024/02/24 05:23:54;;;;;;;8.03;4.40;;;;;;;1.62;100.00;99474.97;6102753;23;20409;-73
2024/02/24 05:26:24;;;;;;;6.00;4.13;;;;;;;1.60;100.00;99471.84;6066918;23;20212;-73
2024/02/24 05:28:50;;;;;;;6.30;4.20;;;;;;;1.57;100.00;99480.28;6067192;23;20196;-73
2024/02/24 05:31:18;;;;;;;6.53;4.57;;;;;;;1.52;100.00;99472.56;6081146;23;20305;-71
2024/02/24 05:33:47;;;;;;;9.10;5.10;;;;;;;1.47;100.00;99477.88;6093341;23;20224;-71
2024/02/24 05:36:14;;;;;;;10.33;5.50;;;;;;;1.45;100.00;99480.00;6093360;23;21187;-70
2024/02/24 05:38:40;;;;;;;8.07;5.70;;;;;;;1.42;100.00;99481.38;6069513;23;20257;-71
2024/02/24 05:41:07;;;;;;;8.37;5.20;;;;;;;1.37;100.00;99483.28;6094215;23;20173;-72
2024/02/24 05:43:33;;;;;;;7.07;5.10;;;;;;;1.34;100.00;99497.66;6094392;23;20169;-72
2024/02/24 05:46:03;;;;;;;9.50;5.63;;;;;;;1.32;100.00;99493.78;6091347;23;20193;-71
2024/02/24 05:48:30;;;;;;;8.73;5.67;;;;;;;1.30;100.00;99490.72;6094638;23;20237;-72
2024/02/24 05:50:57;;;;;;;8.50;5.30;;;;;;;1.29;100.00;99499.56;6093605;23;20181;-72
2024/02/24 05:53:23;;;;;;;7.57;4.67;;;;;;;1.25;100.00;99494.19;6094769;23;20182;-72
2024/02/24 05:55:49;;;;;;;9.77;5.10;;;;;;;1.22;100.00;99483.59;6094756;23;20190;-72
2024/02/24 05:58:16;;;;;;;8.53;6.10;;;;;;;1.20;100.00;99490.91;6093302;23;20170;-71
2024/02/24 06:00:42;;;;;;;8.57;5.30;;;;;;;1.17;100.00;99488.88;6093313;23;20768;-72
2024/02/24 06:03:11;;;;;;;8.17;5.30;;;;;;;1.17;100.00;99492.28;6093842;23;20166;-71
2024/02/24 06:05:39;;;;;;;12.63;5.50;;;;;;;1.17;100.00;99496.69;6094242;23;20245;-72
2024/02/24 06:08:06;;;;;;;7.60;4.87;;;;;;;1.16;100.00;99490.75;6094063;23;20181;-72
2024/02/24 06:10:33;;;;;;;7.93;5.00;;;;;;;1.14;100.00;99495.44;6093916;23;20180;-71
2024/02/24 06:13:00;;;;;;;10.97;4.93;;;;;;;1.14;100.00;99503.22;6094192;23;20189;-71
2024/02/24 06:15:26;;;;;;;7.80;4.87;;;;;;;1.11;100.00;99503.06;6092520;23;20194;-72
2024/02/24 06:17:52;;;;;;;9.23;5.13;;;;;;;1.13;100.00;99503.53;6091902;23;20174;-72
2024/02/24 06:20:19;;;;;;;9.53;5.93;;;;;;;1.13;100.00;99511.31;6092151;23;20174;-71
2024/02/24 06:22:47;;;;;;;8.40;5.33;;;;;;;1.13;100.00;99512.09;6092556;23;20329;-71
2024/02/24 06:25:14;;;;;;;11.23;5.33;;;;;;;1.13;100.00;99513.91;6094864;23;20519;-71
2024/02/24 06:27:40;;;;;;;10.97;5.03;;;;;;;1.15;100.00;99522.97;6092672;23;20222;-73
2024/02/24 06:30:08;;;;;;;8.63;4.50;;;;;;;1.16;100.00;99527.13;6092673;23;20177;-71
2024/02/24 06:32:34;;;;;;;8.33;4.77;;;;;;;1.19;100.00;99533.59;6088705;23;20399;-71
2024/02/24 06:35:01;;;;;;;8.93;4.97;;;;;;;1.23;100.00;99537.13;6091020;23;20169;-71
2024/02/24 06:37:27;;;;;;;12.27;4.87;;;;;;;1.25;100.00;99535.03;6093577;23;20600;-71
2024/02/24 06:39:55;;;;;;;11.30;5.57;;;;;;;1.30;100.00;99537.53;6094366;23;20169;-71
2024/02/24 06:42:21;;;;;;;9.23;4.60;;;;;;;1.31;100.00;99541.66;6093729;23;20176;-72
2024/02/24 06:44:47;;;;;;;7.37;5.13;;;;;;;1.33;100.00;99539.53;6093838;23;20170;-71
2024/02/24 06:47:14;;;;;;;8.13;5.10;;;;;;;1.36;100.00;99550.13;6092078;23;20721;-71
2024/02/24 06:49:41;;;;;;;8.30;5.20;;;;;;;1.38;100.00;99549.84;6090644;23;20233;-71
2024/02/24 06:52:07;;;;;;;10.20;5.27;;;;;;;1.43;100.00;99549.75;6090358;23;20185;-71
2024/02/24 06:54:33;;;;;;;9.20;4.67;;;;;;;1.46;100.00;99547.31;6091409;23;20190;-71
2024/02/24 06:57:01;;;;;;;10.90;4.50;;;;;;;1.50;100.00;99552.75;6089371;23;20595;-71
2024/02/24 06:59:28;;;;;;;8.30;4.87;;;;;;;1.53;100.00;99552.16;6091547;23;20261;-72
2024/02/24 07:01:55;;;;;;;17.10;5.33;;;;;;;1.56;100.00;99554.19;6094389;23;20866;-72
2024/02/24 07:04:21;;;;;;;11.57;5.60;;;;;;;1.59;100.00;99563.97;6095616;23;20162;-72
2024/02/24 07:06:48;;;;;;;14.33;5.40;;;;;;;1.62;100.00;99566.78;6094388;23;20189;-72
2024/02/24 07:09:14;;;;;;;12.60;5.77;;;;;;;1.65;100.00;99575.81;6093799;23;20235;-71
2024/02/24 07:11:40;;;;;;;8.20;5.10;;;;;;;1.66;100.00;99572.19;6094250;23;20174;-72
2024/02/24 07:14:08;;;;;;;7.43;5.17;;;;;;;1.69;100.00;99576.78;6093225;23;20200;-71
2024/02/24 07:16:34;;;;;;;13.03;5.30;;;;;;;1.71;100.00;99587.69;6093740;23;20686;-72
2024/02/24 07:19:01;;;;;;;12.13;5.70;;;;;;;1.72;100.00;99584.78;6082147;23;21024;-71
2024/02/24 07:21:27;;;;;;;10.50;4.57;;;;;;;1.74;100.00;99584.50;6090416;23;20535;-71
2024/02/24 07:23:54;;;;;;;8.20;5.27;;;;;;;1.76;100.00;99588.34;6089791;23;20166;-71
2024/02/24 07:26:20;;;;;;;10.83;5.50;;;;;;;1.80;100.00;99588.53;6091655;23;20614;-71
2024/02/24 07:28:47;;;;;;;8.43;5.00;;;;;;;1.81;100.00;99592.66;6092310;23;20166;-72
2024/02/24 07:31:15;;;;;;;10.17;5.07;;;;;;;1.84;100.00;99598.09;6092438;23;20178;-72
2024/02/24 07:33:41;;;;;;;9.23;5.60;;;;;;;1.87;100.00;99591.53;6089849;23;20294;-72
2024/02/24 07:36:07;;;;;;;6.90;4.93;;;;;;;1.91;100.00;99592.47;6092291;23;20559;-72
2024/02/24 07:38:34;;;;;;;9.23;5.43;;;;;;;1.96;100.00;99597.56;6094536;23;20176;-72
2024/02/24 07:41:01;;;;;;;11.67;5.03;;;;;;;2.03;100.00;99606.53;6094404;23;20359;-72
2024/02/24 07:43:28;;;;;;;14.17;6.00;;;;;;;2.13;100.00;99597.75;6097429;23;20615;-72
2024/02/24 07:45:54;;;;;;;11.17;5.13;;;;;;;2.21;100.00;99597.81;6092488;23;20186;-72
2024/02/24 07:48:22;;;;;;;11.70;4.90;;;;;;;2.30;100.00;99596.06;6093705;23;20173;-72
2024/02/24 07:50:48;;;;;;;9.53;5.40;;;;;;;2.38;100.00;99594.59;6093902;23;20180;-72
2024/02/24 07:53:14;;;;;;;11.30;5.63;;;;;;;2.47;100.00;99604.00;6094554;23;20185;-72
2024/02/24 07:55:41;;;;;;;9.67;5.13;;;;;;;2.56;100.00;99601.44;6058946;23;20760;-72
2024/02/24 07:58:08;;;;;;;7.63;4.67;;;;;;;2.65;100.00;99605.63;6095792;23;20506;-71
2024/02/24 08:00:35;;;;;;;10.27;5.23;;;;;;;2.75;100.00;99613.22;6092820;23;20240;-72
2024/02/24 08:03:02;;;;;;;12.53;5.77;;;;;;;2.83;100.00;99612.53;6093979;23;20538;-71
2024/02/24 08:05:29;;;;;;;9.83;5.13;;;;;;;2.94;100.00;99621.63;6093861;23;20190;-72
2024/02/24 08:07:56;;;;;;;6.77;4.57;;;;;;;3.01;100.00;99621.97;6094326;23;20181;-71
2024/02/24 08:10:22;;;;;;;8.63;4.93;;;;;;;3.13;100.00;99627.41;6096626;23;20176;-73
2024/02/24 08:12:48;;;;;;;8.07;4.87;;;;;;;3.24;100.00;99627.91;6059309;23;20256;-71
2024/02/24 08:15:15;;;;;;;8.87;4.77;;;;;;;3.34;100.00;99627.66;6093311;23;20283;-71
2024/02/24 08:17:41;;;;;;;8.60;5.40;;;;;;;3.43;100.00;99624.00;6093863;23;20169;-71
2024/02/24 08:20:09;;;;;;;6.50;4.87;;;;;;;3.53;100.00;99631.56;6092973;23;20174;-72
2024/02/24 08:22:39;;;;;;;10.27;5.80;;;;;;;3.65;100.00;99626.56;6095788;23;20253;-71
2024/02/24 08:25:06;;;;;;;22.77;9.00;;;;;;;3.75;100.00;99628.13;6094720;23;20163;-72
2024/02/24 08:27:32;;;;;;;22.47;9.30;;;;;;;3.85;100.00;99635.69;6093992;23;20174;-72
2024/02/24 08:29:59;;;;;;;8.63;4.33;;;;;;;3.96;100.00;99637.72;6094317;23;20170;-71
2024/02/24 08:32:25;;;;;;;10.37;4.27;;;;;;;4.07;100.00;99648.63;6094553;23;20178;-72
2024/02/24 08:34:51;;;;;;;10.83;4.87;;;;;;;4.16;100.00;99644.97;6096225;23;20575;-71
2024/02/24 08:37:18;;;;;;;29.80;10.80;;;;;;;4.26;100.00;99647.25;6060560;23;20253;-71
2024/02/24 08:39:45;;;;;;;25.50;9.77;;;;;;;4.38;100.00;99647.44;6094670;23;20170;-72
2024/02/24 08:42:12;;;;;;;21.10;8.37;;;;;;;4.50;100.00;99654.69;6092639;23;20170;-72
2024/02/24 08:44:38;;;;;;;10.47;4.90;;;;;;;4.58;100.00;99657.28;6094559;23;20174;-72
2024/02/24 08:47:05;;;;;;;5.33;3.73;;;;;;;4.67;100.00;99655.44;6095545;23;20190;-72
2024/02/24 08:49:31;;;;;;;7.60;3.83;;;;;;;4.77;100.00;99657.72;6095491;23;20163;-71
2024/02/24 08:51:58;;;;;;;5.80;3.53;;;;;;;4.88;100.00;99648.47;6094811;23;20175;-72
2024/02/24 08:54:25;;;;;;;9.97;3.93;;;;;;;5.06;100.00;99657.06;6095531;23;20221;-72
2024/02/24 08:56:52;;;;;;;6.57;2.53;;;;;;;5.15;100.00;99656.00;6093700;23;20195;-72
2024/02/24 08:59:19;;;;;;;3.23;2.03;;;;;;;5.27;100.00;99658.72;6094531;23;20241;-72
2024/02/24 09:01:45;;;;;;;4.60;2.03;;;;;;;5.43;100.00;99662.38;6094220;23;20515;-72
2024/02/24 09:04:12;;;;;;;2.43;1.80;;;;;;;5.56;100.00;99669.28;6095140;23;20170;-72
2024/02/24 09:06:38;;;;;;;6.17;2.60;;;;;;;5.70;100.00;99666.44;6095233;23;20289;-71
2024/02/24 09:09:05;;;;;;;6.83;2.63;;;;;;;5.82;100.00;99669.97;6094096;23;20179;-72
2024/02/24 09:11:31;;;;;;;5.37;1.70;;;;;;;5.93;100.00;99676.38;6095513;23;20484;-72
2024/02/24 09:13:59;;;;;;;3.03;1.43;;;;;;;6.06;100.00;99678.00;6094433;23;20192;-72
2024/02/24 09:16:25;;;;;;;2.37;1.00;;;;;;;6.15;100.00;99676.09;6095560;23;20217;-72
2024/02/24 09:18:52;;;;;;;2.73;1.13;;;;;;;6.28;100.00;99682.19;6060231;23;20174;-72
2024/02/24 09:21:19;;;;;;;1.90;1.10;;;;;;;6.37;100.00;99681.03;6094057;23;20228;-72
2024/02/24 09:23:45;;;;;;;4.40;1.30;;;;;;;6.44;100.00;99694.41;6093240;23;20167;-71
2024/02/24 09:26:11;;;;;;;3.43;1.43;;;;;;;6.54;100.00;99698.50;6094951;23;20190;-72
2024/02/24 09:28:38;;;;;;;2.20;1.10;;;;;;;6.63;100.00;99699.97;6093023;23;20170;-72
2024/02/24 09:31:05;;;;;;;1.97;1.17;;;;;;;6.72;100.00;99705.94;6092306;23;20182;-72
2024/02/24 09:33:32;;;;;;;3.87;1.20;;;;;;;6.83;100.00;99708.94;6094483;23;20222;-72
2024/02/24 09:35:58;;;;;;;2.90;1.30;;;;;;;6.91;100.00;99708.88;6092686;23;20194;-72
2024/02/24 09:38:24;;;;;;;4.50;2.10;;;;;;;6.98;100.00;99719.59;6094807;23;20170;-72
2024/02/24 09:40:51;;;;;;;7.03;3.27;;;;;;;7.07;100.00;99720.31;6095022;23;20167;-72
2024/02/24 09:43:18;;;;;;;7.20;2.90;;;;;;;7.16;100.00;99722.84;6092078;23;20616;-72
2024/02/24 09:45:47;;;;;;;8.87;3.67;;;;;;;7.23;100.00;99716.00;6079363;23;20718;-72
2024/02/24 09:48:16;;;;;;;6.70;3.20;;;;;;;7.30;100.00;99724.09;6090955;23;20166;-71
2024/02/24 09:50:42;;;;;;;3.93;1.97;;;;;;;7.37;100.00;99728.81;6090831;23;20244;-72
2024/02/24 09:53:09;;;;;;;3.83;2.20;;;;;;;7.46;100.00;99724.25;6056556;23;20174;-72
2024/02/24 09:55:36;;;;;;;2.77;1.60;;;;;;;7.51;100.00;99734.56;6095821;23;20209;-72
2024/02/24 09:58:06;;;;;;;5.80;1.70;;;;;;;7.59;100.00;99723.19;6092761;23;20643;-72
2024/02/24 10:00:32;;;;;;;4.23;1.90;;;;;;;7.65;100.00;99733.16;6093495;23;20167;-72
2024/02/24 10:02:59;;;;;;;2.27;1.20;;;;;;;7.72;100.00;99727.38;6093585;23;20166;-72
2024/02/24 10:05:27;;;;;;;2.63;1.43;;;;;;;7.77;100.00;99735.81;6092981;23;20200;-72
2024/02/24 10:07:53;;;;;;;2.90;1.40;;;;;;;7.85;100.00;99734.16;6094299;23;20626;-72
2024/02/24 10:10:20;;;;;;;2.23;1.43;;;;;;;7.92;100.00;99734.41;6094439;23;20173;-72
2024/02/24 10:12:59;;;;;;;3.87;1.30;;;;;;;7.97;100.00;99734.19;6092889;23;20557;-72
2024/02/24 10:15:26;;;;;;;5.00;1.33;;;;;;;8.04;100.00;99737.03;6093574;23;20665;-72
2024/02/24 10:17:54;;;;;;;2.70;1.40;;;;;;;8.10;100.00;99747.00;6092141;23;20170;-71
2024/02/24 10:20:21;;;;;;;1.93;1.20;;;;;;;8.19;100.00;99745.03;6092654;23;20172;-72
2024/02/24 10:22:49;;;;;;;4.03;1.50;;;;;;;8.26;100.00;99753.19;6057999;23;20176;-72
2024/02/24 10:25:15;;;;;;;2.67;1.67;;;;;;;8.32;100.00;99751.06;6093450;23;20170;-72
2024/02/24 10:27:43;;;;;;;2.10;1.20;;;;;;;8.38;100.00;99752.41;6092598;23;20179;-72
2024/02/24 10:30:10;;;;;;;1.83;1.10;;;;;;;8.45;100.00;99750.72;6092771;23;20174;-72
2024/02/24 10:32:37;;;;;;;7.23;1.40;;;;;;;8.52;100.00;99755.44;6092795;23;20388;-72
2024/02/24 10:35:04;;;;;;;4.23;1.10;;;;;;;8.60;100.00;99749.31;6091622;23;20657;-72
2024/02/24 10:37:32;;;;;;;3.30;1.93;;;;;;;8.65;100.00;99747.19;6093647;23;20177;-72
2024/02/24 10:40:00;;;;;;;2.83;1.50;;;;;;;8.71;100.00;99758.28;6094601;23;20172;-72
2024/02/24 10:42:28;;;;;;;2.50;1.97;;;;;;;8.78;100.00;99755.84;6057380;23;20200;-72
2024/02/24 10:44:55;;;;;;;4.77;3.00;;;;;;;8.84;100.00;99759.75;6092068;23;20806;-72
2024/02/24 10:47:22;;;;;;;2.43;1.90;;;;;;;8.90;100.00;99756.56;6090361;23;20224;-72
2024/02/24 10:49:48;;;;;;;2.37;1.50;;;;;;;8.96;100.00;99760.50;6093810;23;20487;-72
2024/02/24 10:52:16;;;;;;;1.73;1.40;;;;;;;9.03;100.00;99755.44;6093083;23;20176;-72
2024/02/24 10:54:43;;;;;;;2.37;1.30;;;;;;;9.12;100.00;99748.16;6092253;23;20189;-72
2024/02/24 10:57:14;;;;;;;2.83;1.40;;;;;;;9.18;100.00;99751.31;6081105;23;20657;-72
2024/02/24 10:59:40;;;;;;;2.30;1.00;;;;;;;9.24;100.00;99761.28;6055736;23;20176;-72
2024/02/24 11:02:08;;;;;;;3.20;1.60;;;;;;;9.33;90.42;99758.50;6089595;23;20635;-72
2024/02/24 11:04:35;;;;;;;3.10;1.50;;;;;;;9.38;92.19;99766.91;6091288;23;20169;-72
2024/02/24 11:07:02;;;;;;;2.27;1.40;;;;;;;9.47;95.13;99774.69;6092702;23;20219;-72
2024/02/24 11:09:34;;;;;;;2.80;1.50;;;;;;;9.52;94.24;99772.56;6090908;23;20193;-72
2024/02/24 11:12:05;;;;;;;2.50;1.20;;;;;;;9.59;89.95;99779.91;6090815;23;20633;-72
2024/02/24 11:14:32;;;;;;;1.37;1.27;;;;;;;9.66;91.32;99777.44;6094550;23;20177;-72
2024/02/24 11:16:59;;;;;;;2.57;1.40;;;;;;;9.72;93.06;99786.63;6093789;23;20240;-72
2024/02/24 11:19:40;;;;;;;5.10;1.50;;;;;;;9.81;93.41;99782.75;6090992;23;20181;-72
2024/02/24 11:22:11;;;;;;;6.33;3.90;;;;;;;9.88;88.25;99787.44;6089430;23;20185;-72
2024/02/24 11:24:37;;;;;;;5.93;2.17;;;;;;;9.95;86.60;99790.22;6094745;23;20172;-72
2024/02/24 11:27:04;;;;;;;3.00;1.63;;;;;;;10.00;84.08;99787.34;6093999;23;20185;-72
2024/02/24 11:29:33;;;;;;;1.70;1.30;;;;;;;10.07;82.42;99793.59;6093638;23;20177;-72